Airfield :
LOGIN :

Register | Disclaimer

   EN    FR    IT 

 










Legend :    VFR   Marginal VFR   IFR   Intensive IFR   Very Intensive IFR
Visi :
Ceiling :
>= 8 km
>= 3000ft
5 to 8 km
1000 to 3000 ft
1500m to 5 km
500 to 1000 ft
800 to 1500m
200 to 500 ft
< 800m
< 200 ft
Symbols :   Thunderstorms  Fog  Heavy snow  Heavy precipitations  Wind > 20 kt
SIGMETs :     Misc.  Thunderstorms  Icing  Turbulence  Mountain Waves  Volcanic Ashes







- Airport Elevation : 220 ft
- IATA code : CWL
- Download approach charts


EGFF - Cardiff Rhoose

CURRENT METAR :
  • 240820Z AUTO 28009KT 9000 OVC003 15/15 Q1015

EXPIRED METARs :
  • 240750Z AUTO 29008KT 2500 -DZ OVC004 15/14 Q1015
  • 240720Z AUTO 29009KT 9999 OVC007 15/14 Q1015
  • 240650Z AUTO 28007KT 9999 BKN007 OVC016 15/14 Q1015
  • 240620Z AUTO 29008KT 9999 BKN008 BKN012 OVC016 15/14 Q1015
  • 240550Z AUTO 29010KT 9999 OVC008 15/14 Q1014

TAF COR TAF EGFF
Valid from the 24 at 06:00 until the 25 at 06:00 UTC


240515Z 2406/2506 27012KT 4000 BR BKN003
BECMG 2406/2409 9999 NSW SCT020
PROB30
TEMPO 2415/2418 7000 -RA BKN007
BECMG 2503/2506 BKN010
TEMPO 2503/2506 6000 RA BKN008
ATIS : +44 1446 729 319
No reported NOTAMs for that airfield.



MET'MAP, your aeronautical weather chart ! - Copyright ORBIFLY December 2007 - Disclaimer

ORBIFLY MET'MAP TEAM :

Programming & Development : Alexandra Zaïnal
Concept & Development : Baudouin d'Aumeries
Co-Development & Prog : Marc-Olivier Méhu
Technical & hardware support : Manuel Goepfert

Contact : metmap@orbifly.com




SOURCES & CREDITS :

   NOAA